createdAt,value
2024-01-15T00:00:12.794Z,9.98
2024-01-15T00:02:39.564Z,8.40
2024-01-15T00:05:08.080Z,7.15
2024-01-15T00:07:34.622Z,8.27
2024-01-15T00:10:01.198Z,9.40
2024-01-15T00:12:28.224Z,8.65
2024-01-15T00:14:55.531Z,9.10
2024-01-15T00:17:22.165Z,8.38
2024-01-15T00:19:49.173Z,8.60
2024-01-15T00:22:15.761Z,8.27
2024-01-15T00:24:43.035Z,8.55
2024-01-15T00:27:09.642Z,8.88
2024-01-15T00:29:36.203Z,7.78
2024-01-15T00:32:02.877Z,7.22
2024-01-15T00:34:29.662Z,7.95
2024-01-15T00:36:56.251Z,8.20
2024-01-15T00:39:23.084Z,7.97
2024-01-15T00:41:49.737Z,7.55
2024-01-15T00:44:16.258Z,7.47
2024-01-15T00:46:47.146Z,7.35
2024-01-15T00:49:17.545Z,7.78
2024-01-15T00:51:44.361Z,7.65
2024-01-15T00:54:11.118Z,7.38
2024-01-15T00:56:38.132Z,7.80
2024-01-15T00:59:04.777Z,7.78
2024-01-15T01:01:31.336Z,7.65
2024-01-15T01:03:58.540Z,8.02
2024-01-15T01:06:26.007Z,7.57
2024-01-15T01:08:54.632Z,7.45
2024-01-15T01:11:21.394Z,8.18
2024-01-15T01:13:47.846Z,7.20
2024-01-15T01:16:14.377Z,7.05
2024-01-15T01:18:41.086Z,8.20
2024-01-15T01:21:07.783Z,9.07
2024-01-15T01:23:34.316Z,7.55
2024-01-15T01:26:01.672Z,9.38
2024-01-15T01:28:29.115Z,8.75
2024-01-15T01:30:55.639Z,8.15
2024-01-15T01:33:22.274Z,9.07
2024-01-15T01:35:48.935Z,8.55
2024-01-15T01:38:15.393Z,8.75
2024-01-15T01:40:44.280Z,8.52
2024-01-15T01:43:11.462Z,8.10
2024-01-15T01:45:38.089Z,9.70
2024-01-15T01:48:05.474Z,8.50
2024-01-15T01:50:33.159Z,9.13
2024-01-15T01:53:01.145Z,8.68
2024-01-15T01:55:30.472Z,9.10
2024-01-15T01:57:57.447Z,9.00
2024-01-15T02:00:24.144Z,8.02
2024-01-15T02:02:50.758Z,8.55
2024-01-15T02:05:21.493Z,9.32
2024-01-15T02:07:48.353Z,7.85
2024-01-15T02:10:15.200Z,8.23
2024-01-15T02:12:41.831Z,7.82
2024-01-15T02:15:08.703Z,7.72
2024-01-15T02:17:35.385Z,8.77
2024-01-15T02:20:02.389Z,7.88
2024-01-15T02:22:28.845Z,7.88
2024-01-15T02:24:55.352Z,7.57
2024-01-15T02:27:22.014Z,8.13
2024-01-15T02:29:49.682Z,7.72
2024-01-15T02:32:16.257Z,7.60
2024-01-15T02:34:42.991Z,7.53
2024-01-15T02:37:09.596Z,7.28
2024-01-15T02:39:36.065Z,6.30
2024-01-15T02:42:02.811Z,6.75
2024-01-15T02:44:29.332Z,6.80
2024-01-15T02:46:55.817Z,8.25
2024-01-15T02:49:22.366Z,7.82
2024-01-15T02:51:49.163Z,7.35
2024-01-15T02:54:15.653Z,7.03
2024-01-15T02:56:42.166Z,8.05
2024-01-15T02:59:08.895Z,6.50
2024-01-15T03:01:35.372Z,6.53
2024-01-15T03:04:04.732Z,6.22
2024-01-15T03:06:31.468Z,5.95
2024-01-15T03:08:57.962Z,5.45
2024-01-15T03:11:24.504Z,6.65
2024-01-15T03:13:50.984Z,5.80
2024-01-15T03:16:17.448Z,6.20
2024-01-15T03:18:46.587Z,5.88
2024-01-15T03:21:13.226Z,5.97
2024-01-15T03:23:39.729Z,5.22
2024-01-15T03:26:06.302Z,5.55
2024-01-15T03:28:32.892Z,5.43
2024-01-15T03:30:59.682Z,4.50
2024-01-15T03:33:26.623Z,5.90
2024-01-15T03:35:53.167Z,5.25
2024-01-15T03:38:19.837Z,5.13
2024-01-15T03:40:46.438Z,5.50
2024-01-15T03:43:13.038Z,5.28
2024-01-15T03:45:39.767Z,5.28
2024-01-15T03:48:06.661Z,4.55
2024-01-15T03:50:33.225Z,4.75
2024-01-15T03:52:59.729Z,5.28
2024-01-15T03:55:26.261Z,5.30
2024-01-15T03:57:52.766Z,5.22
2024-01-15T04:00:19.771Z,5.70
2024-01-15T04:02:46.279Z,4.70
2024-01-15T04:05:12.813Z,5.18
2024-01-15T04:07:39.290Z,4.43
2024-01-15T04:10:06.159Z,5.20
2024-01-15T04:12:32.826Z,4.75
2024-01-15T04:14:59.497Z,4.53
2024-01-15T04:17:26.047Z,3.90
2024-01-15T04:19:52.633Z,4.60
2024-01-15T04:22:19.276Z,4.95
2024-01-15T04:24:45.894Z,3.33
2024-01-15T04:27:12.577Z,3.60
2024-01-15T04:29:41.650Z,3.80
2024-01-15T04:32:08.513Z,3.50
2024-01-15T04:34:35.171Z,3.60
2024-01-15T04:37:01.737Z,3.83
2024-01-15T04:39:28.419Z,3.85
2024-01-15T04:41:55.034Z,3.50
2024-01-15T04:44:21.643Z,3.00
2024-01-15T04:46:48.117Z,3.83
2024-01-15T04:49:14.759Z,3.45
2024-01-15T04:51:41.376Z,2.92
2024-01-15T04:54:10.096Z,4.10
2024-01-15T04:56:36.696Z,3.28
2024-01-15T04:59:03.309Z,3.47
2024-01-15T05:01:33.886Z,3.47
2024-01-15T05:04:00.861Z,3.20
2024-01-15T05:06:27.585Z,3.67
2024-01-15T05:08:54.154Z,2.75
2024-01-15T05:11:20.850Z,2.97
2024-01-15T05:13:47.412Z,2.78
2024-01-15T05:16:13.925Z,3.10
2024-01-15T05:18:40.545Z,3.15
2024-01-15T05:21:07.241Z,3.25
2024-01-15T05:23:33.772Z,3.08
2024-01-15T05:26:00.302Z,2.60
2024-01-15T05:28:26.945Z,2.85
2024-01-15T05:30:53.968Z,3.53
2024-01-15T05:33:20.650Z,3.03
2024-01-15T05:35:47.481Z,2.80
2024-01-15T05:38:14.016Z,5.03
2024-01-15T05:40:40.431Z,2.83
2024-01-15T05:43:07.089Z,2.85
2024-01-15T05:45:35.940Z,4.32
2024-01-15T05:48:02.698Z,3.17
2024-01-15T05:50:29.341Z,3.83
2024-01-15T05:52:55.824Z,2.40
2024-01-15T05:55:22.333Z,3.42
2024-01-15T05:57:49.074Z,2.88
2024-01-15T06:00:16.205Z,2.88
2024-01-15T06:02:42.877Z,2.60
2024-01-15T06:05:09.368Z,2.25
2024-01-15T06:07:37.305Z,2.65
2024-01-15T06:10:05.765Z,3.08
2024-01-15T06:12:33.463Z,2.17
2024-01-15T06:15:01.072Z,2.45
2024-01-15T06:17:27.675Z,2.55
2024-01-15T06:19:54.369Z,2.75
2024-01-15T06:22:21.263Z,2.28
2024-01-15T06:24:47.817Z,2.63
2024-01-15T06:27:14.392Z,2.33
2024-01-15T06:29:50.394Z,2.33
2024-01-15T06:32:20.240Z,2.75
2024-01-15T06:34:46.758Z,3.30
2024-01-15T06:37:13.425Z,3.45
2024-01-15T06:39:40.009Z,2.95
2024-01-15T06:42:06.653Z,2.60
2024-01-15T06:44:33.311Z,2.38
2024-01-15T06:47:03.518Z,1.98
2024-01-15T06:49:30.998Z,2.13
2024-01-15T06:51:58.031Z,2.25
2024-01-15T06:54:24.936Z,2.50
2024-01-15T06:56:51.707Z,2.78
2024-01-15T06:59:20.214Z,2.05
2024-01-15T07:01:47.542Z,2.35
2024-01-15T07:04:14.546Z,1.92
2024-01-15T07:06:41.325Z,2.28
2024-01-15T07:09:09.132Z,2.25
2024-01-15T07:11:35.644Z,2.33
2024-01-15T07:14:02.086Z,1.88
2024-01-15T07:16:36.620Z,1.90
2024-01-15T07:19:05.165Z,1.88
2024-01-15T07:21:31.838Z,2.15
2024-01-15T07:23:58.382Z,1.92
2024-01-15T07:26:24.913Z,2.25
2024-01-15T07:28:51.849Z,2.33
2024-01-15T07:31:22.665Z,2.53
2024-01-15T07:33:49.411Z,2.35
2024-01-15T07:36:16.130Z,2.30
2024-01-15T07:38:42.920Z,2.53
2024-01-15T07:41:09.513Z,2.97
2024-01-15T07:43:36.278Z,2.30
2024-01-15T07:46:06.079Z,2.60
2024-01-15T07:48:32.745Z,2.30
2024-01-15T07:50:59.349Z,2.78
2024-01-15T07:53:25.884Z,2.25
2024-01-15T07:55:52.386Z,3.20
2024-01-15T07:58:18.969Z,2.33
2024-01-15T08:00:45.977Z,2.63
2024-01-15T08:03:14.008Z,1.90
2024-01-15T08:05:40.959Z,2.50
2024-01-15T08:08:07.728Z,2.40
2024-01-15T08:10:36.957Z,1.98
2024-01-15T08:13:03.545Z,2.35
2024-01-15T08:15:31.722Z,1.80
2024-01-15T08:17:58.837Z,1.95
2024-01-15T08:20:25.754Z,2.45
2024-01-15T08:22:52.959Z,2.78
2024-01-15T08:25:19.603Z,2.35
2024-01-15T08:27:46.240Z,2.00
2024-01-15T08:30:13.449Z,2.45
2024-01-15T08:32:43.395Z,1.95
2024-01-15T08:35:10.552Z,1.90
2024-01-15T08:37:37.405Z,2.22
2024-01-15T08:40:04.903Z,2.15
2024-01-15T08:42:31.465Z,2.80
2024-01-15T08:44:58.172Z,2.03
2024-01-15T08:47:24.761Z,2.58
2024-01-15T08:49:51.378Z,3.75
2024-01-15T08:52:17.882Z,2.88
2024-01-15T08:54:44.417Z,2.13
2024-01-15T08:57:12.786Z,2.65
2024-01-15T08:59:39.918Z,2.78
2024-01-15T09:02:06.708Z,2.58
2024-01-15T09:04:33.287Z,3.28
2024-01-15T09:06:59.951Z,2.40
2024-01-15T09:09:26.447Z,2.22
2024-01-15T09:11:53.087Z,3.35
2024-01-15T09:14:30.578Z,2.60
2024-01-15T09:17:04.551Z,2.90
2024-01-15T09:19:31.189Z,2.72
2024-01-15T09:21:58.714Z,2.20
2024-01-15T09:24:27.935Z,2.15
2024-01-15T09:26:55.590Z,2.67
2024-01-15T09:29:22.188Z,2.40
2024-01-15T09:31:48.785Z,2.33
2024-01-15T09:34:16.122Z,2.50
2024-01-15T09:36:43.622Z,2.30
2024-01-15T09:39:12.218Z,2.60
2024-01-15T09:41:39.560Z,2.40
2024-01-15T09:44:06.723Z,2.00
2024-01-15T09:46:33.979Z,2.58
2024-01-15T09:49:01.872Z,2.50
2024-01-15T09:51:32.677Z,1.98
2024-01-15T09:56:25.858Z,2.75
2024-01-15T09:58:55.996Z,2.58
2024-01-15T10:01:23.941Z,2.22
2024-01-15T10:03:51.738Z,2.30
2024-01-15T10:06:22.472Z,2.22
2024-01-15T10:08:52.401Z,2.88
2024-01-15T10:11:19.172Z,2.22
2024-01-15T10:13:50.492Z,2.17
2024-01-15T10:16:17.737Z,2.60
2024-01-15T10:18:44.333Z,2.17
2024-01-15T10:21:11.004Z,2.45
2024-01-15T10:23:37.690Z,2.25
2024-01-15T10:26:04.742Z,2.38
2024-01-15T10:28:32.766Z,2.33
2024-01-15T10:31:00.693Z,1.77
2024-01-15T10:33:28.140Z,2.28
2024-01-15T10:35:58.761Z,2.28
2024-01-15T10:38:25.999Z,1.90
2024-01-15T10:40:57.350Z,1.85
2024-01-15T10:43:28.148Z,2.30
2024-01-15T10:45:56.361Z,2.10
2024-01-15T10:48:23.050Z,2.33
2024-01-15T10:50:49.792Z,1.50
2024-01-15T10:53:17.761Z,1.63
2024-01-15T10:55:44.967Z,1.83
2024-01-15T10:58:11.639Z,2.03
2024-01-15T11:00:39.564Z,2.25
2024-01-15T11:03:07.371Z,1.70
2024-01-15T11:05:44.630Z,1.88
2024-01-15T11:08:12.180Z,2.17
2024-01-15T11:10:43.335Z,2.10
2024-01-15T11:13:30.818Z,2.90
2024-01-15T11:16:12.924Z,2.20
2024-01-15T11:18:42.309Z,2.22
2024-01-15T11:21:18.158Z,2.67
2024-01-15T11:23:52.470Z,2.45
2024-01-15T11:26:56.248Z,2.40
2024-01-15T11:29:30.724Z,2.75
2024-01-15T11:32:08.940Z,2.20
2024-01-15T11:35:03.474Z,2.65
2024-01-15T11:37:53.884Z,2.33
2024-01-15T11:40:33.845Z,2.28
2024-01-15T11:43:00.816Z,2.20
2024-01-15T11:45:28.292Z,2.70
2024-01-15T11:48:12.643Z,2.83
2024-01-15T11:50:44.104Z,2.78
2024-01-15T11:53:37.536Z,2.40
2024-01-15T11:56:07.389Z,3.17
2024-01-15T11:58:35.000Z,2.67
2024-01-15T12:01:01.805Z,2.35
2024-01-15T12:03:28.483Z,2.10
2024-01-15T12:05:55.219Z,2.67
2024-01-15T12:08:23.547Z,2.50
2024-01-15T12:10:50.236Z,2.30
2024-01-15T12:13:18.821Z,2.22
2024-01-15T12:15:47.455Z,2.20
2024-01-15T12:18:16.483Z,2.47
2024-01-15T12:20:44.802Z,2.13
2024-01-15T12:23:12.168Z,2.00
2024-01-15T12:25:39.386Z,2.22
2024-01-15T12:28:06.818Z,5.97
2024-01-15T12:30:35.736Z,2.35
2024-01-15T12:33:06.259Z,2.67
2024-01-15T12:35:35.929Z,2.30
2024-01-15T12:38:06.335Z,2.53
2024-01-15T12:40:36.197Z,2.88
2024-01-15T12:43:04.167Z,2.10
2024-01-15T12:45:31.898Z,2.58
2024-01-15T12:47:59.022Z,2.50
2024-01-15T12:50:27.275Z,2.55
2024-01-15T12:52:54.100Z,2.95
2024-01-15T12:55:20.803Z,2.80
2024-01-15T12:57:47.573Z,2.40
2024-01-15T13:00:16.231Z,3.03
2024-01-15T13:02:44.444Z,2.97
2024-01-15T13:05:13.232Z,2.97
2024-01-15T13:07:41.161Z,3.30
2024-01-15T13:10:10.002Z,3.47
2024-01-15T13:12:36.796Z,2.45
2024-01-15T13:15:04.813Z,3.13
2024-01-15T13:17:32.077Z,3.47
2024-01-15T13:19:58.927Z,3.83
2024-01-15T13:22:31.043Z,4.15
2024-01-15T13:24:57.692Z,3.78
2024-01-15T13:27:24.570Z,4.82
2024-01-15T13:29:51.192Z,3.72
2024-01-15T13:32:26.989Z,4.53
2024-01-15T13:34:53.761Z,7.25
2024-01-15T13:37:20.408Z,3.47
2024-01-15T13:39:46.959Z,4.75
2024-01-15T13:42:13.681Z,3.88
2024-01-15T13:44:41.458Z,4.10
2024-01-15T13:47:08.081Z,4.03
2024-01-15T13:49:35.442Z,4.10
2024-01-15T13:52:04.867Z,5.90
2024-01-15T13:54:42.051Z,4.15
2024-01-15T13:57:15.811Z,3.85
2024-01-15T13:59:42.419Z,3.08
2024-01-15T14:02:09.020Z,2.85
2024-01-15T14:04:35.636Z,3.47
2024-01-15T14:07:02.304Z,3.67
2024-01-15T14:09:28.827Z,3.55
2024-01-15T14:11:55.700Z,4.50
2024-01-15T14:14:22.184Z,3.60
2024-01-15T14:16:48.720Z,3.40
2024-01-15T14:19:16.532Z,3.95
2024-01-15T14:21:43.361Z,3.58
2024-01-15T14:24:09.904Z,3.65
2024-01-15T14:26:36.397Z,2.63
2024-01-15T14:29:02.910Z,3.20
2024-01-15T14:31:30.075Z,3.20
2024-01-15T14:33:56.838Z,2.63
2024-01-15T14:36:23.648Z,2.88
2024-01-15T14:38:50.199Z,2.33
2024-01-15T14:41:18.042Z,2.78
2024-01-15T14:43:46.072Z,2.65
2024-01-15T14:46:12.633Z,2.95
2024-01-15T14:48:39.347Z,3.65
2024-01-15T14:51:06.472Z,3.20
2024-01-15T14:53:33.141Z,3.17
2024-01-15T14:55:59.924Z,3.55
2024-01-15T14:58:26.595Z,3.50
2024-01-15T15:00:53.440Z,4.28
2024-01-15T15:03:20.084Z,4.00
2024-01-15T15:05:46.934Z,3.08
2024-01-15T15:08:13.899Z,3.38
2024-01-15T15:10:41.552Z,2.28
2024-01-15T15:13:08.264Z,3.00
2024-01-15T15:15:35.434Z,3.40
2024-01-15T15:18:02.772Z,2.65
2024-01-15T15:20:29.515Z,2.38
2024-01-15T15:22:57.043Z,3.22
2024-01-15T15:25:24.171Z,2.90
2024-01-15T15:27:50.727Z,3.20
2024-01-15T15:30:17.333Z,3.10
2024-01-15T15:32:44.262Z,2.25
2024-01-15T15:35:11.595Z,3.78
2024-01-15T15:37:38.520Z,2.80
2024-01-15T15:40:09.613Z,2.45
2024-01-15T15:42:36.968Z,2.97
2024-01-15T15:45:04.786Z,2.42
2024-01-15T15:47:31.639Z,2.42
2024-01-15T15:49:58.539Z,2.83
2024-01-15T15:52:25.426Z,2.90
2024-01-15T15:54:52.230Z,3.03
2024-01-15T15:57:18.952Z,2.97
2024-01-15T15:59:45.622Z,2.70
2024-01-15T16:02:12.143Z,2.78
2024-01-15T16:04:38.960Z,2.10
2024-01-15T16:07:10.966Z,2.22
2024-01-15T16:09:38.098Z,2.80
2024-01-15T16:12:05.140Z,3.22
2024-01-15T16:14:31.667Z,2.30
2024-01-15T16:23:13.629Z,2.38
2024-01-15T16:23:26.934Z,2.03
2024-01-15T16:23:42.332Z,2.10
2024-01-15T16:25:19.776Z,2.28
2024-01-15T16:27:46.708Z,1.77
2024-01-15T16:30:24.730Z,1.85
2024-01-15T16:32:56.631Z,2.30
2024-01-15T16:35:23.863Z,1.95
2024-01-15T16:37:50.962Z,3.05
2024-01-15T16:40:17.768Z,2.80
2024-01-15T16:42:46.138Z,2.10
2024-01-15T16:45:12.752Z,2.55
2024-01-15T16:47:39.723Z,2.08
2024-01-15T16:50:06.672Z,2.47
2024-01-15T16:52:33.147Z,2.10
2024-01-15T16:55:00.241Z,1.83
2024-01-15T16:57:26.819Z,1.95
2024-01-15T16:59:53.431Z,2.72
2024-01-15T17:02:20.219Z,2.83
2024-01-15T17:04:47.021Z,2.13
2024-01-15T17:07:14.856Z,2.40
2024-01-15T17:09:41.602Z,3.67
2024-01-15T17:12:08.462Z,2.40
2024-01-15T17:14:35.409Z,4.15
2024-01-15T17:17:02.472Z,2.40
2024-01-15T17:19:29.270Z,3.33
2024-01-15T17:21:55.974Z,2.92
2024-01-15T17:24:22.548Z,3.22
2024-01-15T17:26:50.052Z,3.33
2024-01-15T17:29:17.548Z,3.90
2024-01-15T17:31:44.126Z,3.05
2024-01-15T17:34:11.783Z,5.85
2024-01-15T17:36:38.686Z,5.05
2024-01-15T17:39:07.232Z,4.50
2024-01-15T17:41:36.528Z,4.13
2024-01-15T17:44:03.439Z,4.32
2024-01-15T17:46:30.420Z,4.70
2024-01-15T17:49:03.756Z,5.28
2024-01-15T17:51:34.159Z,4.95
2024-01-15T17:54:01.773Z,4.68
2024-01-15T17:56:28.669Z,4.63
2024-01-15T17:58:56.814Z,6.25
2024-01-15T18:01:23.499Z,5.72
2024-01-15T18:03:51.834Z,6.70
2024-01-15T18:06:18.516Z,5.72
2024-01-15T18:08:45.287Z,5.05
2024-01-15T18:11:19.220Z,6.28
2024-01-15T18:13:46.717Z,5.70
2024-01-15T18:16:13.573Z,5.95
2024-01-15T18:18:40.257Z,6.22
2024-01-15T18:21:07.817Z,6.32
2024-01-15T18:23:34.965Z,7.68
2024-01-15T18:26:01.829Z,6.90
2024-01-15T18:28:28.490Z,7.07
2024-01-15T18:30:55.090Z,6.38
2024-01-15T18:33:24.329Z,7.30
2024-01-15T18:35:52.436Z,7.35
2024-01-15T18:38:19.190Z,5.80
2024-01-15T18:40:45.708Z,5.50
2024-01-15T18:43:12.141Z,5.35
2024-01-15T18:45:38.963Z,3.88
2024-01-15T18:48:07.580Z,5.22
2024-01-15T18:50:34.374Z,4.82
2024-01-15T18:53:00.945Z,5.30
2024-01-15T18:55:27.497Z,5.10
2024-01-15T18:57:59.149Z,4.38
2024-01-15T19:00:27.257Z,4.35
2024-01-15T19:02:58.912Z,4.60
2024-01-15T19:05:25.972Z,4.18
2024-01-15T19:07:52.542Z,4.10
2024-01-15T19:10:19.084Z,4.78
2024-01-15T19:12:46.226Z,4.05
2024-01-15T19:15:12.858Z,3.60
2024-01-15T19:17:39.921Z,4.40
2024-01-15T19:20:08.452Z,4.90
2024-01-15T19:22:34.970Z,4.93
2024-01-15T19:25:02.014Z,4.28
2024-01-15T19:27:28.551Z,4.00
2024-01-15T19:29:55.049Z,4.72
2024-01-15T19:32:22.013Z,4.70
2024-01-15T19:34:49.171Z,5.70
2024-01-15T19:37:15.772Z,4.38
2024-01-15T19:39:42.231Z,3.88
2024-01-15T19:42:08.821Z,3.70
2024-01-15T19:44:35.893Z,3.97
2024-01-15T19:47:02.674Z,4.35
2024-01-15T19:49:29.679Z,3.30
2024-01-15T19:51:56.199Z,4.70
2024-01-15T19:54:22.890Z,4.68
2024-01-15T19:56:49.641Z,3.28
2024-01-15T19:59:16.934Z,3.40
2024-01-15T20:01:44.754Z,2.85
2024-01-15T20:04:11.255Z,2.78
2024-01-15T20:06:37.933Z,2.28
2024-01-15T20:09:04.532Z,2.78
2024-01-15T20:11:32.189Z,3.97
2024-01-15T20:13:58.717Z,2.30
2024-01-15T20:16:25.317Z,2.03
2024-01-15T20:18:52.107Z,2.50
2024-01-15T20:21:19.437Z,2.40
2024-01-15T20:23:54.668Z,2.03
2024-01-15T20:26:25.714Z,2.50
2024-01-15T20:28:52.437Z,2.25
2024-01-15T20:31:19.085Z,2.53
2024-01-15T20:33:45.774Z,2.50
2024-01-15T20:36:14.210Z,2.25
2024-01-15T20:38:41.030Z,2.08
2024-01-15T20:41:08.307Z,2.75
2024-01-15T20:43:37.685Z,2.05
2024-01-15T20:46:04.315Z,2.92
2024-01-15T20:48:31.409Z,2.22
2024-01-15T20:50:59.115Z,2.35
2024-01-15T20:53:26.375Z,2.25
2024-01-15T20:55:52.960Z,1.95
2024-01-15T20:58:23.839Z,2.00
2024-01-15T21:00:51.080Z,1.80
2024-01-15T21:03:19.566Z,2.05
2024-01-15T21:05:46.538Z,2.08
2024-01-15T21:08:13.615Z,2.25
2024-01-15T21:10:41.398Z,2.05
2024-01-15T21:13:08.335Z,2.20
2024-01-15T21:15:35.375Z,2.20
2024-01-15T21:18:03.713Z,2.90
2024-01-15T21:20:31.164Z,2.60
2024-01-15T21:22:57.700Z,2.10
2024-01-15T21:25:24.192Z,2.47
2024-01-15T21:27:50.807Z,2.17
2024-01-15T21:30:17.290Z,2.58
2024-01-15T21:32:44.069Z,2.72
2024-01-15T21:35:13.280Z,2.70
2024-01-15T21:37:41.533Z,2.60
2024-01-15T21:40:10.825Z,3.15
2024-01-15T21:42:38.368Z,2.97
2024-01-15T21:45:08.142Z,2.88
2024-01-15T21:47:36.849Z,2.72
2024-01-15T21:50:09.936Z,2.70
2024-01-15T21:52:36.725Z,2.78
2024-01-15T21:55:03.704Z,3.58
2024-01-15T21:57:32.417Z,3.67
2024-01-15T22:00:01.514Z,3.90
2024-01-15T22:02:30.623Z,3.65
2024-01-15T22:04:57.684Z,3.65
2024-01-15T22:07:24.119Z,3.78
2024-01-15T22:09:50.634Z,3.78
2024-01-15T22:12:17.147Z,3.75
2024-01-15T22:14:43.797Z,4.90
2024-01-15T22:17:10.377Z,4.25
2024-01-15T22:19:37.036Z,5.05
2024-01-15T22:22:04.012Z,4.00
2024-01-15T22:24:30.553Z,4.30
2024-01-15T22:26:57.092Z,4.00
2024-01-15T22:29:24.362Z,3.92
2024-01-15T22:31:50.859Z,4.38
2024-01-15T22:34:18.781Z,4.03
2024-01-15T22:36:45.418Z,4.20
2024-01-15T22:39:12.206Z,4.47
2024-01-15T22:41:38.786Z,4.00
2024-01-15T22:44:05.608Z,4.63
2024-01-15T22:46:32.189Z,4.38
2024-01-15T22:48:58.720Z,4.10
2024-01-15T22:51:25.518Z,5.05
2024-01-15T22:53:54.773Z,4.82
2024-01-15T22:56:22.003Z,4.80
2024-01-15T22:58:48.937Z,4.85
2024-01-15T23:01:15.562Z,4.65
2024-01-15T23:03:42.099Z,5.03
2024-01-15T23:06:19.742Z,5.65
2024-01-15T23:08:46.838Z,4.35
2024-01-15T23:11:13.734Z,5.07
2024-01-15T23:13:43.648Z,5.13
2024-01-15T23:16:14.376Z,4.57
2024-01-15T23:21:09.896Z,4.55
2024-01-15T23:23:37.075Z,4.40
2024-01-15T23:26:04.048Z,4.85
2024-01-15T23:28:32.226Z,5.38
2024-01-15T23:30:58.804Z,5.13
2024-01-15T23:33:25.353Z,4.05
2024-01-15T23:35:54.373Z,4.28
2024-01-15T23:38:23.246Z,4.15
2024-01-15T23:40:49.725Z,4.40
2024-01-15T23:43:16.316Z,4.82
2024-01-15T23:45:42.872Z,3.78
2024-01-15T23:48:09.470Z,3.97
2024-01-15T23:50:36.030Z,3.90
2024-01-15T23:53:02.549Z,3.92
2024-01-15T23:55:29.158Z,3.95
2024-01-15T23:57:56.222Z,3.42
